createdAt,value
2019-02-18T00:00:14.031Z,99.99
2019-02-18T00:01:14.019Z,99.99
2019-02-18T00:02:14.003Z,99.99
2019-02-18T00:03:13.986Z,99.99
2019-02-18T00:04:13.980Z,99.99
2019-02-18T00:05:13.956Z,99.99
2019-02-18T00:06:13.941Z,99.99
2019-02-18T00:07:16.895Z,99.99
2019-02-18T00:08:13.913Z,99.99
2019-02-18T00:09:13.921Z,99.99
2019-02-18T00:10:13.880Z,99.99
2019-02-18T00:11:13.868Z,99.99
2019-02-18T00:12:13.850Z,99.99
2019-02-18T00:13:13.834Z,99.99
2019-02-18T00:14:13.821Z,99.99
2019-02-18T00:15:13.803Z,99.99
2019-02-18T00:16:13.850Z,99.99
2019-02-18T00:17:13.774Z,99.99
2019-02-18T00:18:13.758Z,99.99
2019-02-18T00:19:13.742Z,99.99
2019-02-18T00:20:13.730Z,99.99
2019-02-18T00:21:13.713Z,99.99
2019-02-18T00:22:13.458Z,99.99
2019-02-18T00:23:13.682Z,99.99
2019-02-18T00:24:13.666Z,99.99
2019-02-18T00:25:13.649Z,99.99
2019-02-18T00:26:13.635Z,99.99
2019-02-18T00:27:13.648Z,99.99
2019-02-18T00:28:13.610Z,99.99
2019-02-18T00:29:13.592Z,99.99
2019-02-18T00:30:13.574Z,99.99
2019-02-18T00:31:13.560Z,99.99
2019-02-18T00:32:13.546Z,99.99
2019-02-18T00:33:13.530Z,99.99
2019-02-18T00:34:13.511Z,99.99
2019-02-18T00:35:13.502Z,99.99
2019-02-18T00:36:13.481Z,99.99
2019-02-18T00:37:13.467Z,99.99
2019-02-18T00:38:13.456Z,99.99
2019-02-18T00:39:13.436Z,99.99
2019-02-18T00:40:13.420Z,99.99
2019-02-18T00:41:13.405Z,99.99
2019-02-18T00:42:13.390Z,99.99
2019-02-18T00:43:13.374Z,99.99
2019-02-18T00:44:13.357Z,99.99
2019-02-18T00:45:13.346Z,99.99
2019-02-18T00:46:13.329Z,99.99
2019-02-18T00:47:13.312Z,99.99
2019-02-18T00:48:13.304Z,99.99
2019-02-18T00:49:13.282Z,99.99
2019-02-18T00:50:13.269Z,99.99
2019-02-18T00:51:13.257Z,99.99
2019-02-18T00:52:13.238Z,99.99
2019-02-18T00:53:13.224Z,99.99
2019-02-18T00:54:13.205Z,99.99
2019-02-18T00:55:13.188Z,99.99
2019-02-18T00:56:13.180Z,99.99
2019-02-18T00:57:13.161Z,99.99
2019-02-18T00:58:13.144Z,99.99
2019-02-18T00:59:13.148Z,99.99
2019-02-18T01:00:13.113Z,99.99
2019-02-18T01:01:13.096Z,99.99
2019-02-18T01:02:13.082Z,99.99
2019-02-18T01:03:13.066Z,99.99
2019-02-18T01:04:13.048Z,99.99
2019-02-18T01:05:13.038Z,99.99
2019-02-18T01:06:13.022Z,99.99
2019-02-18T01:07:13.004Z,99.99
2019-02-18T01:08:12.991Z,99.99
2019-02-18T01:09:12.973Z,99.99
2019-02-18T01:10:12.960Z,99.99
2019-02-18T01:11:12.951Z,99.99
2019-02-18T01:12:12.929Z,99.99
2019-02-18T01:13:12.911Z,99.99
2019-02-18T01:14:12.962Z,99.99
2019-02-18T01:15:12.880Z,99.99
2019-02-18T01:16:12.879Z,99.99
2019-02-18T01:17:12.847Z,99.99
2019-02-18T01:18:12.832Z,99.99
2019-02-18T01:19:12.818Z,99.99
2019-02-18T01:20:12.808Z,99.99
2019-02-18T01:21:12.787Z,99.99
2019-02-18T01:22:12.771Z,99.99
2019-02-18T01:23:12.757Z,99.99
2019-02-18T01:24:12.740Z,99.99
2019-02-18T01:25:12.727Z,99.99
2019-02-18T01:26:12.712Z,99.99
2019-02-18T01:27:12.695Z,99.99
2019-02-18T01:28:12.674Z,99.99
2019-02-18T01:29:12.660Z,99.99
2019-02-18T01:30:12.644Z,99.99
2019-02-18T01:31:12.627Z,99.99
2019-02-18T01:32:12.613Z,99.99
2019-02-18T01:33:12.597Z,99.99
2019-02-18T01:34:12.579Z,99.99
2019-02-18T01:35:12.564Z,99.99
2019-02-18T01:36:12.550Z,99.99
2019-02-18T01:37:12.535Z,99.99
2019-02-18T01:38:12.519Z,99.99
2019-02-18T01:39:12.510Z,99.99
2019-02-18T01:40:12.502Z,99.99
2019-02-18T01:41:12.473Z,99.99
2019-02-18T01:42:12.454Z,99.99
2019-02-18T01:43:12.442Z,99.99
2019-02-18T01:44:12.426Z,99.99
2019-02-18T01:45:12.409Z,99.99
2019-02-18T01:46:12.390Z,99.99
2019-02-18T01:47:12.375Z,99.99
2019-02-18T01:48:12.360Z,99.99
2019-02-18T01:49:12.343Z,99.99
2019-02-18T01:50:12.328Z,99.99
2019-02-18T01:51:12.311Z,99.99
2019-02-18T01:52:12.296Z,99.99
2019-02-18T01:53:12.282Z,99.99
2019-02-18T01:54:12.273Z,99.99
2019-02-18T01:55:12.250Z,99.99
2019-02-18T01:56:12.238Z,99.99
2019-02-18T01:57:12.224Z,99.99
2019-02-18T01:58:12.204Z,99.99
2019-02-18T01:59:12.190Z,99.99
2019-02-18T02:00:12.173Z,99.99
2019-02-18T02:01:12.155Z,99.99
2019-02-18T02:02:12.135Z,99.99
2019-02-18T02:03:12.122Z,99.99
2019-02-18T02:04:12.105Z,99.99
2019-02-18T02:05:12.091Z,99.99
2019-02-18T02:06:12.073Z,99.99
2019-02-18T02:07:12.058Z,99.99
2019-02-18T02:08:12.050Z,99.99
2019-02-18T02:09:12.029Z,99.99
2019-02-18T02:10:12.013Z,99.99
2019-02-18T02:11:11.993Z,99.99
2019-02-18T02:12:11.979Z,99.99
2019-02-18T02:13:11.969Z,99.99
2019-02-18T02:14:11.949Z,99.99
2019-02-18T02:15:11.933Z,99.99
2019-02-18T02:16:11.941Z,99.99
2019-02-18T02:17:11.899Z,99.99
2019-02-18T02:18:11.654Z,99.99
2019-02-18T02:19:11.865Z,99.99
2019-02-18T02:20:11.851Z,99.99
2019-02-18T02:21:11.858Z,99.99
2019-02-18T02:22:11.821Z,99.99
2019-02-18T02:23:11.806Z,99.99
2019-02-18T02:24:11.789Z,99.99
2019-02-18T02:25:11.777Z,99.99
2019-02-18T02:26:11.755Z,99.99
2019-02-18T02:27:11.500Z,99.99
2019-02-18T02:28:11.727Z,99.99
2019-02-18T02:29:11.708Z,99.99
2019-02-18T02:30:11.697Z,99.99
2019-02-18T02:31:11.689Z,99.99
2019-02-18T02:32:11.704Z,99.99
2019-02-18T02:33:11.649Z,99.99
2019-02-18T02:34:11.638Z,99.99
2019-02-18T02:35:11.610Z,99.99
2019-02-18T02:36:11.599Z,99.99
2019-02-18T02:37:11.582Z,99.99
2019-02-18T02:38:11.567Z,99.99
2019-02-18T02:39:11.553Z,99.99
2019-02-18T02:40:11.538Z,99.99
2019-02-18T02:41:11.518Z,99.99
2019-02-18T02:42:11.503Z,99.99
2019-02-18T02:43:11.490Z,99.99
2019-02-18T02:44:11.479Z,99.99
2019-02-18T02:45:11.452Z,99.99
2019-02-18T02:46:11.441Z,99.99
2019-02-18T02:47:11.461Z,99.99
2019-02-18T02:48:11.410Z,99.99
2019-02-18T02:49:11.394Z,99.99
2019-02-18T02:50:11.379Z,99.99
2019-02-18T02:51:11.380Z,99.99
2019-02-18T02:52:11.342Z,99.99
2019-02-18T02:53:11.326Z,99.99
2019-02-18T02:54:11.309Z,99.99
2019-02-18T02:55:11.591Z,99.99
2019-02-18T02:56:11.283Z,99.99
2019-02-18T02:57:11.262Z,99.99
2019-02-18T02:58:11.246Z,99.99
2019-02-18T02:59:11.235Z,99.99
2019-02-18T03:00:11.220Z,99.99
2019-02-18T03:01:11.195Z,99.99
2019-02-18T03:02:11.180Z,99.99
2019-02-18T03:03:11.163Z,99.99
2019-02-18T03:04:11.154Z,99.99
2019-02-18T03:05:11.141Z,99.99
2019-02-18T03:06:11.126Z,99.99
2019-02-18T03:07:11.102Z,99.99
2019-02-18T03:08:22.712Z,99.99
2019-02-18T03:09:11.110Z,99.99
2019-02-18T03:10:11.053Z,99.99
2019-02-18T03:11:11.056Z,99.99
2019-02-18T03:12:11.021Z,99.99
2019-02-18T03:13:11.006Z,99.99
2019-02-18T03:14:10.987Z,99.99
2019-02-18T03:15:10.975Z,99.99
2019-02-18T03:16:10.969Z,99.99
2019-02-18T03:17:10.937Z,99.99
2019-02-18T03:18:10.928Z,99.99
2019-02-18T03:19:10.905Z,99.99
2019-02-18T03:20:10.893Z,99.99
2019-02-18T03:21:10.873Z,99.99
2019-02-18T03:22:10.856Z,99.99
2019-02-18T03:23:10.842Z,99.99
2019-02-18T03:24:10.823Z,99.99
2019-02-18T03:25:10.810Z,99.99
2019-02-18T03:26:10.795Z,99.99
2019-02-18T03:27:10.774Z,99.99
2019-02-18T03:28:10.759Z,99.99
2019-02-18T03:29:10.742Z,99.99
2019-02-18T03:30:10.738Z,99.99
2019-02-18T03:31:10.714Z,99.99
2019-02-18T03:32:10.702Z,99.99
2019-02-18T03:33:10.681Z,99.99
2019-02-18T03:34:10.664Z,99.99
2019-02-18T03:35:10.644Z,99.99
2019-02-18T03:36:10.629Z,99.99
2019-02-18T03:37:10.618Z,99.99
2019-02-18T03:38:10.599Z,99.99
2019-02-18T03:39:10.578Z,99.99
2019-02-18T03:40:10.575Z,99.99
2019-02-18T03:41:10.548Z,99.99
2019-02-18T03:42:10.532Z,99.99
2019-02-18T03:43:10.513Z,99.99
2019-02-18T03:44:10.498Z,99.99
2019-02-18T03:45:10.483Z,99.99
2019-02-18T03:46:10.470Z,99.99
2019-02-18T03:47:10.462Z,99.99
2019-02-18T03:48:10.445Z,99.99
2019-02-18T03:49:10.414Z,99.99
2019-02-18T03:50:10.407Z,99.99
2019-02-18T03:51:10.380Z,99.99
2019-02-18T03:52:10.370Z,99.99
2019-02-18T03:53:10.363Z,99.99
2019-02-18T03:54:10.336Z,99.99
2019-02-18T03:55:10.317Z,99.99
2019-02-18T03:57:10.288Z,99.99
2019-02-18T03:58:10.270Z,99.99
2019-02-18T03:59:10.252Z,99.99
2019-02-18T04:00:10.232Z,99.99
2019-02-18T04:01:10.216Z,99.99
2019-02-18T04:02:10.199Z,99.99
2019-02-18T04:03:10.181Z,99.99
2019-02-18T04:04:10.167Z,99.99
2019-02-18T04:05:10.154Z,99.99
2019-02-18T04:06:10.143Z,99.99
2019-02-18T04:07:10.200Z,99.99
2019-02-18T04:08:10.102Z,99.99
2019-02-18T04:09:10.082Z,99.99
2019-02-18T04:10:10.073Z,99.99
2019-02-18T04:11:10.049Z,99.99
2019-02-18T04:12:10.036Z,99.99
2019-02-18T04:13:10.017Z,99.99
2019-02-18T04:14:10.000Z,99.99
2019-02-18T04:15:09.985Z,99.99
2019-02-18T04:16:09.968Z,99.99
2019-02-18T04:17:09.955Z,99.99
2019-02-18T04:18:09.934Z,99.99
2019-02-18T04:19:09.919Z,99.99
2019-02-18T04:20:09.905Z,99.99
2019-02-18T04:21:09.893Z,99.99
2019-02-18T04:22:09.868Z,99.99
2019-02-18T04:23:09.849Z,99.99
2019-02-18T04:24:09.836Z,99.99
2019-02-18T04:25:09.820Z,99.99
2019-02-18T04:26:09.797Z,99.99
2019-02-18T04:27:09.784Z,99.99
2019-02-18T04:28:09.766Z,99.99
2019-02-18T04:29:09.751Z,99.99
2019-02-18T04:30:09.742Z,99.99
2019-02-18T04:31:09.717Z,99.99
2019-02-18T04:32:09.698Z,99.99
2019-02-18T04:33:09.679Z,99.99
2019-02-18T04:34:09.665Z,99.99
2019-02-18T04:35:09.648Z,99.99
2019-02-18T04:36:09.647Z,99.99
2019-02-18T04:37:09.615Z,99.99
2019-02-18T04:38:09.611Z,99.99
2019-02-18T04:39:09.583Z,99.99
2019-02-18T04:40:09.567Z,99.99
2019-02-18T04:41:09.558Z,99.99
2019-02-18T04:42:09.536Z,99.99
2019-02-18T04:43:09.514Z,99.99
2019-02-18T04:44:09.499Z,99.99
2019-02-18T04:45:09.497Z,99.99
2019-02-18T04:46:09.463Z,99.99
2019-02-18T04:47:09.445Z,99.99
2019-02-18T04:48:09.436Z,99.99
2019-02-18T04:49:09.419Z,99.99
2019-02-18T04:50:09.401Z,99.99
2019-02-18T04:51:09.385Z,99.99
2019-02-18T04:52:09.362Z,99.99
2019-02-18T04:53:09.357Z,99.99
2019-02-18T04:54:09.328Z,99.99
2019-02-18T04:55:09.314Z,99.99
2019-02-18T04:56:09.299Z,99.99
2019-02-18T04:57:09.301Z,99.99
2019-02-18T04:58:09.265Z,99.99
2019-02-18T04:59:09.243Z,99.99
2019-02-18T05:00:10.935Z,99.99
2019-02-18T05:01:09.211Z,99.99
2019-02-18T05:02:09.195Z,99.99
2019-02-18T05:03:09.213Z,99.99
2019-02-18T05:04:09.160Z,99.99
2019-02-18T05:05:09.160Z,99.99
2019-02-18T05:06:09.126Z,99.99
2019-02-18T05:07:09.106Z,99.99
2019-02-18T05:08:09.105Z,99.99
2019-02-18T05:09:09.091Z,99.99
2019-02-18T05:10:09.069Z,99.99
2019-02-18T05:11:09.039Z,99.99
2019-02-18T05:12:09.029Z,99.99
2019-02-18T05:13:09.023Z,99.99
2019-02-18T05:14:08.988Z,99.99
2019-02-18T05:15:08.971Z,99.99
2019-02-18T05:16:08.958Z,99.99
2019-02-18T05:17:08.938Z,99.99
2019-02-18T05:18:08.922Z,99.99
2019-02-18T05:19:08.908Z,99.99
2019-02-18T05:20:08.891Z,99.99
2019-02-18T05:21:08.876Z,99.99
2019-02-18T05:22:08.857Z,99.99
2019-02-18T05:23:08.849Z,99.99
2019-02-18T05:24:08.818Z,99.99
2019-02-18T05:25:08.800Z,99.99
2019-02-18T05:26:08.792Z,99.99
2019-02-18T05:27:08.767Z,99.99
2019-02-18T05:28:08.759Z,99.99
2019-02-18T05:29:08.737Z,99.99
2019-02-18T05:30:08.719Z,99.99
2019-02-18T05:31:08.702Z,99.99
2019-02-18T05:32:08.685Z,99.99
2019-02-18T05:33:08.666Z,99.99
2019-02-18T05:34:08.654Z,99.99
2019-02-18T05:35:08.662Z,99.99
2019-02-18T05:36:08.625Z,99.99
2019-02-18T05:37:08.599Z,99.99
2019-02-18T05:38:08.588Z,99.99
2019-02-18T05:39:19.940Z,99.99
2019-02-18T05:40:08.556Z,99.99
2019-02-18T05:41:08.535Z,99.99
2019-02-18T05:42:08.521Z,99.99
2019-02-18T05:43:08.501Z,99.99
2019-02-18T05:44:08.485Z,99.99
2019-02-18T05:45:08.464Z,99.99
2019-02-18T05:46:11.043Z,99.99
2019-02-18T05:47:08.433Z,99.99
2019-02-18T05:48:08.418Z,99.99
2019-02-18T05:49:08.393Z,99.99
2019-02-18T05:50:08.378Z,99.99
2019-02-18T05:51:08.360Z,99.99
2019-02-18T05:52:08.349Z,99.99
2019-02-18T05:53:08.362Z,99.99
2019-02-18T05:54:08.311Z,99.99
2019-02-18T05:55:08.294Z,99.99
2019-02-18T05:56:08.279Z,99.99
2019-02-18T05:57:08.258Z,99.99
2019-02-18T05:58:08.248Z,99.99
2019-02-18T05:59:08.232Z,99.99
2019-02-18T06:00:08.219Z,99.99
2019-02-18T06:01:08.194Z,99.99
2019-02-18T06:02:08.256Z,99.99
2019-02-18T06:03:08.161Z,99.99
2019-02-18T06:04:07.910Z,99.99
2019-02-18T06:05:08.125Z,99.99
2019-02-18T06:06:08.105Z,99.99
2019-02-18T06:07:08.087Z,99.99
2019-02-18T06:08:08.074Z,99.99
2019-02-18T06:09:08.064Z,99.99
2019-02-18T06:10:08.042Z,99.99
2019-02-18T06:11:08.031Z,99.99
2019-02-18T06:12:08.001Z,99.99
2019-02-18T06:13:07.988Z,99.99
2019-02-18T06:14:07.972Z,99.99
2019-02-18T06:15:07.954Z,99.99
2019-02-18T06:16:07.931Z,99.99
2019-02-18T06:17:07.916Z,99.99
2019-02-18T06:18:07.897Z,99.99
2019-02-18T06:19:07.887Z,99.99
2019-02-18T06:20:07.866Z,99.99
2019-02-18T06:21:07.611Z,99.99
2019-02-18T06:22:07.835Z,99.99
2019-02-18T06:23:07.817Z,99.99
2019-02-18T06:24:07.811Z,99.99
2019-02-18T06:25:07.797Z,99.99
2019-02-18T06:26:07.773Z,99.99
2019-02-18T06:27:07.745Z,99.99
2019-02-18T06:28:07.732Z,99.99
2019-02-18T06:29:07.714Z,99.99
2019-02-18T06:30:07.757Z,99.99
2019-02-18T06:31:07.710Z,99.99
2019-02-18T06:32:07.674Z,99.99
2019-02-18T06:33:07.645Z,99.99
2019-02-18T06:34:07.388Z,99.99
2019-02-18T06:35:07.613Z,99.99
2019-02-18T06:36:07.598Z,99.99
2019-02-18T06:37:07.576Z,99.99
2019-02-18T06:38:07.578Z,99.99
2019-02-18T06:39:07.554Z,99.99
2019-02-18T06:40:07.536Z,99.99
2019-02-18T06:41:07.511Z,99.99
2019-02-18T06:42:07.490Z,99.99
2019-02-18T06:43:07.487Z,99.99
2019-02-18T06:44:07.457Z,99.99
2019-02-18T06:45:07.440Z,99.99
2019-02-18T06:46:07.424Z,99.99
2019-02-18T06:47:07.408Z,99.99
2019-02-18T06:48:07.392Z,99.99
2019-02-18T06:49:07.377Z,99.99
2019-02-18T06:50:07.366Z,99.99
2019-02-18T06:51:07.348Z,99.99
2019-02-18T06:52:07.331Z,99.99
2019-02-18T06:53:07.305Z,99.99
2019-02-18T06:54:07.293Z,99.99
2019-02-18T06:55:07.279Z,99.99
2019-02-18T06:56:07.266Z,99.99
2019-02-18T06:57:07.241Z,99.99
2019-02-18T06:58:07.225Z,99.99
2019-02-18T06:59:07.210Z,99.99
2019-02-18T07:00:07.194Z,99.99
2019-02-18T07:01:07.179Z,99.99
2019-02-18T07:02:07.165Z,99.99
2019-02-18T07:03:07.150Z,99.99
2019-02-18T07:04:07.133Z,99.99
2019-02-18T07:05:07.184Z,99.99
2019-02-18T07:06:07.100Z,99.99
2019-02-18T07:07:07.087Z,99.99
2019-02-18T07:08:07.070Z,99.99
2019-02-18T07:09:07.067Z,99.99
2019-02-18T07:10:07.045Z,99.99
2019-02-18T07:11:07.027Z,99.99
2019-02-18T07:12:07.010Z,99.99
2019-02-18T07:13:07.000Z,99.99
2019-02-18T07:14:06.981Z,99.99
2019-02-18T07:15:06.967Z,99.99
2019-02-18T07:16:06.711Z,99.99
2019-02-18T07:17:06.942Z,99.99
2019-02-18T07:18:06.924Z,99.99
2019-02-18T07:19:06.913Z,99.99
2019-02-18T07:20:06.898Z,99.99
2019-02-18T07:21:06.882Z,99.99
2019-02-18T07:22:06.870Z,99.99
2019-02-18T07:23:06.855Z,99.99
2019-02-18T07:24:06.840Z,99.99
2019-02-18T07:25:06.833Z,99.99
2019-02-18T07:26:06.851Z,99.99
2019-02-18T07:27:06.801Z,99.99
2019-02-18T07:28:06.788Z,99.99
2019-02-18T07:29:06.773Z,99.99
2019-02-18T07:30:06.760Z,99.99
2019-02-18T07:31:06.745Z,99.99
2019-02-18T07:32:06.738Z,99.91
2019-02-18T07:33:06.716Z,99.99
2019-02-18T07:34:06.712Z,99.72
2019-02-18T07:35:06.694Z,99.53
2019-02-18T07:36:06.460Z,99.91
2019-02-18T07:37:06.667Z,99.99
2019-02-18T07:38:06.658Z,99.34
2019-02-18T07:39:06.640Z,99.34
2019-02-18T07:40:06.638Z,98.77
2019-02-18T07:41:06.614Z,99.49
2019-02-18T07:42:06.596Z,99.3
2019-02-18T07:43:06.587Z,98.63
2019-02-18T07:44:06.573Z,98.63
2019-02-18T07:45:06.560Z,98.54
2019-02-18T07:46:06.547Z,98.54
2019-02-18T07:47:06.534Z,98.16
2019-02-18T07:48:06.523Z,98.35
2019-02-18T07:49:06.511Z,98.25
2019-02-18T07:50:06.503Z,97.88
2019-02-18T07:51:06.501Z,97.88
2019-02-18T07:52:06.473Z,98.07
2019-02-18T07:53:06.461Z,98.16
2019-02-18T07:54:06.454Z,98.07
2019-02-18T07:55:06.440Z,97.97
2019-02-18T07:56:06.428Z,97.97
2019-02-18T07:57:06.415Z,97.78
2019-02-18T07:58:06.401Z,97.88
2019-02-18T07:59:06.389Z,97.69
2019-02-18T08:00:06.378Z,98.16
2019-02-18T08:01:06.368Z,97.4
2019-02-18T08:02:06.354Z,97.12
2019-02-18T08:03:06.342Z,97.12
2019-02-18T08:04:06.329Z,97.5
2019-02-18T08:05:06.323Z,97.78
2019-02-18T08:06:06.306Z,97.88
2019-02-18T08:07:06.296Z,98.07
2019-02-18T08:08:06.286Z,97.69
2019-02-18T08:09:06.265Z,97.59
2019-02-18T08:10:14.540Z,97.88
2019-02-18T08:11:06.241Z,97.88
2019-02-18T08:12:06.230Z,98.07
2019-02-18T08:13:06.214Z,97.78
2019-02-18T08:14:06.206Z,97.88
2019-02-18T08:15:06.196Z,97.88
2019-02-18T08:16:06.178Z,97.5
2019-02-18T08:17:06.168Z,97.92
2019-02-18T08:18:06.151Z,97.69
2019-02-18T08:19:06.138Z,98.16
2019-02-18T08:20:06.125Z,97.36
2019-02-18T08:21:06.112Z,97.45
2019-02-18T08:22:06.106Z,97.74
2019-02-18T08:23:06.087Z,97.83
2019-02-18T08:24:06.082Z,97.55
2019-02-18T08:25:06.062Z,96.97
2019-02-18T08:26:06.050Z,97.36
2019-02-18T08:27:06.034Z,96.78
2019-02-18T08:28:06.021Z,96.97
2019-02-18T08:29:06.070Z,96.5
2019-02-18T08:30:05.996Z,96.12
2019-02-18T08:31:05.984Z,96.31
2019-02-18T08:32:05.970Z,96.22
2019-02-18T08:33:05.955Z,96.22
2019-02-18T08:34:06.013Z,95.93
2019-02-18T08:35:05.935Z,96.45
2019-02-18T08:36:05.918Z,95.79
2019-02-18T08:37:05.910Z,95.89
2019-02-18T08:38:05.898Z,96.08
2019-02-18T08:39:05.882Z,95.41
2019-02-18T08:40:05.865Z,95.7
2019-02-18T08:41:05.850Z,95.12
2019-02-18T08:42:05.840Z,94.74
2019-02-18T08:43:05.843Z,95.22
2019-02-18T08:44:05.815Z,94.56
2019-02-18T08:45:05.802Z,94.56
2019-02-18T08:46:05.789Z,94.42
2019-02-18T08:47:05.779Z,94.65
2019-02-18T08:48:05.763Z,94.51
2019-02-18T08:49:05.756Z,94.51
2019-02-18T08:50:05.740Z,93.94
2019-02-18T08:51:05.725Z,93.94
2019-02-18T08:52:05.713Z,93.65
2019-02-18T08:53:05.703Z,93.65
2019-02-18T08:54:05.687Z,93.75
2019-02-18T08:55:05.677Z,93.65
2019-02-18T08:56:05.663Z,93.27
2019-02-18T08:57:05.649Z,93.18
2019-02-18T08:58:05.649Z,92.8
2019-02-18T08:59:05.624Z,92.9
2019-02-18T09:00:05.614Z,92.13
2019-02-18T09:01:05.361Z,92.13
2019-02-18T09:02:05.590Z,92.32
2019-02-18T09:03:05.592Z,92.42
2019-02-18T09:04:05.573Z,92.27
2019-02-18T09:05:05.640Z,92.75
2019-02-18T09:06:05.558Z,92.37
2019-02-18T09:07:05.565Z,92.46
2019-02-18T09:08:05.516Z,92.56
2019-02-18T09:09:05.814Z,92.27
2019-02-18T09:10:05.494Z,92.08
2019-02-18T09:11:05.480Z,91.8
2019-02-18T09:12:05.469Z,91.99
2019-02-18T09:13:05.515Z,91.52
2019-02-18T09:14:05.447Z,91.42
2019-02-18T09:15:05.434Z,90.94
2019-02-18T09:16:05.422Z,91.33
2019-02-18T09:17:05.410Z,91.13
2019-02-18T09:18:05.401Z,91.18
2019-02-18T09:19:05.386Z,91.37
2019-02-18T09:20:05.376Z,90.89
2019-02-18T09:21:05.423Z,90.7
2019-02-18T09:22:05.357Z,90.99
2019-02-18T09:23:05.346Z,90.89
2019-02-18T09:24:05.332Z,90.61
2019-02-18T09:25:05.323Z,90.99
2019-02-18T09:26:05.313Z,90.33
2019-02-18T09:27:05.294Z,90.14
2019-02-18T09:28:05.284Z,90.23
2019-02-18T09:29:05.330Z,90.23
2019-02-18T09:30:05.027Z,90.04
2019-02-18T09:31:05.256Z,90.14
2019-02-18T09:32:05.239Z,89.66
2019-02-18T09:33:05.234Z,89.56
2019-02-18T09:34:05.221Z,90.14
2019-02-18T09:35:05.451Z,89.66
2019-02-18T09:36:05.200Z,89.66
2019-02-18T09:37:05.182Z,89.47
2019-02-18T09:38:05.173Z,89.23
2019-02-18T09:39:05.163Z,89.32
2019-02-18T09:40:05.148Z,89.23
2019-02-18T09:41:05.140Z,89.14
2019-02-18T09:42:05.151Z,89.32
2019-02-18T09:43:05.114Z,88.46
2019-02-18T09:44:05.103Z,88.66
2019-02-18T09:45:05.092Z,88.85
2019-02-18T09:46:05.086Z,88.46
2019-02-18T09:47:05.078Z,88.09
2019-02-18T09:48:05.063Z,88.28
2019-02-18T09:49:05.047Z,88.28
2019-02-18T09:50:05.054Z,88.37
2019-02-18T09:51:05.030Z,88.09
2019-02-18T09:52:05.016Z,87.99
2019-02-18T09:53:05.056Z,88.51
2019-02-18T09:54:04.994Z,88.09
2019-02-18T09:55:04.993Z,88.09
2019-02-18T09:56:04.997Z,87.94
2019-02-18T09:57:04.967Z,88.13
2019-02-18T09:58:04.953Z,88.23
2019-02-18T09:59:04.941Z,88.32
2019-02-18T10:00:04.930Z,88.04
2019-02-18T10:01:04.921Z,87.94
2019-02-18T10:02:04.911Z,87.65
2019-02-18T10:03:04.903Z,88.04
2019-02-18T10:04:04.887Z,87.18
2019-02-18T10:05:04.892Z,87.46
2019-02-18T10:06:05.195Z,87.27
2019-02-18T10:07:04.860Z,86.99
2019-02-18T10:08:04.847Z,86.55
2019-02-18T10:09:04.837Z,86.8
2019-02-18T10:10:07.156Z,86.42
2019-02-18T10:11:04.827Z,85.99
2019-02-18T10:12:04.804Z,85.6
2019-02-18T10:13:04.810Z,85.7
2019-02-18T10:14:04.792Z,84.65
2019-02-18T10:15:04.996Z,85.41
2019-02-18T10:16:04.765Z,84.94
2019-02-18T10:17:04.751Z,84.94
2019-02-18T10:18:04.743Z,85.13
2019-02-18T10:19:04.732Z,85.03
2019-02-18T10:20:04.724Z,85.03
2019-02-18T10:21:04.714Z,85.13
2019-02-18T10:22:04.707Z,84.94
2019-02-18T10:23:04.694Z,84.94
2019-02-18T10:24:04.691Z,84.94
2019-02-18T10:25:04.681Z,84.56
2019-02-18T10:26:04.663Z,84.5
2019-02-18T10:27:04.655Z,84.31
2019-02-18T10:28:04.642Z,84.31
2019-02-18T10:29:04.640Z,84.22
2019-02-18T10:30:04.626Z,84.03
2019-02-18T10:31:04.617Z,83.74
2019-02-18T10:32:04.607Z,83.45
2019-02-18T10:33:04.594Z,84.03
2019-02-18T10:34:04.588Z,83.07
2019-02-18T10:35:04.575Z,82.5
2019-02-18T10:36:04.566Z,82.79
2019-02-18T10:37:04.558Z,82.5
2019-02-18T10:38:04.551Z,82.5
2019-02-18T10:39:04.540Z,82.41
2019-02-18T10:40:04.527Z,82.35
2019-02-18T10:41:09.535Z,82.64
2019-02-18T10:42:04.511Z,82.07
2019-02-18T10:43:04.503Z,81.68
2019-02-18T10:44:04.491Z,81.59
2019-02-18T10:45:04.488Z,81.88
2019-02-18T10:46:04.486Z,81.4
2019-02-18T10:47:04.479Z,80.92
2019-02-18T10:48:04.461Z,80.44
2019-02-18T10:49:04.456Z,80.73
2019-02-18T10:50:04.446Z,80.44
2019-02-18T10:51:04.433Z,80.16
2019-02-18T10:52:04.419Z,80.07
2019-02-18T10:53:04.439Z,79.68
2019-02-18T10:54:04.628Z,79.97
2019-02-18T10:55:04.402Z,79.21
2019-02-18T10:56:04.384Z,78.73
2019-02-18T10:57:04.377Z,78.92
2019-02-18T10:58:04.666Z,78.54
2019-02-18T10:59:04.360Z,77.97
2019-02-18T11:00:04.353Z,77.62
2019-02-18T11:01:04.336Z,77.44
2019-02-18T11:02:04.684Z,77.53
2019-02-18T11:03:04.319Z,77.62
2019-02-18T11:04:04.305Z,77.62
2019-02-18T11:05:04.306Z,76.96
2019-02-18T11:06:04.306Z,77.44
2019-02-18T11:07:04.285Z,76.2
2019-02-18T11:08:04.272Z,76.57
2019-02-18T11:09:04.262Z,76.67
2019-02-18T11:10:04.256Z,76.29
2019-02-18T11:11:04.263Z,76.39
2019-02-18T11:12:04.238Z,76.01
2019-02-18T11:13:04.447Z,76.29
2019-02-18T11:14:04.238Z,75.43
2019-02-18T11:15:04.225Z,75.15
2019-02-18T11:16:04.210Z,75.24
2019-02-18T11:17:04.200Z,75.05
2019-02-18T11:18:04.218Z,74.48
2019-02-18T11:19:04.174Z,74.1
2019-02-18T11:20:04.188Z,73.62
2019-02-18T11:21:04.347Z,72.96
2019-02-18T11:22:04.160Z,73.14
2019-02-18T11:23:04.152Z,73.14
2019-02-18T11:24:04.387Z,72.86
2019-02-18T11:25:04.135Z,72.71
2019-02-18T11:26:04.118Z,72.57
2019-02-18T11:27:04.118Z,72.03
2019-02-18T11:28:04.099Z,72.42
2019-02-18T11:29:04.345Z,72.03
2019-02-18T11:30:04.083Z,71.75
2019-02-18T11:31:04.085Z,71.37
2019-02-18T11:32:04.064Z,71.46
2019-02-18T11:33:04.071Z,71.18
2019-02-18T11:34:04.074Z,71.27
2019-02-18T11:35:04.061Z,71.84
2019-02-18T11:36:04.035Z,71.37
2019-02-18T11:37:04.234Z,71.46
2019-02-18T11:38:04.025Z,71.18
2019-02-18T11:39:04.010Z,71.56
2019-02-18T11:40:03.763Z,71.56
2019-02-18T11:41:03.991Z,71.84
2019-02-18T11:42:03.979Z,71.94
2019-02-18T11:43:03.974Z,71.94
2019-02-18T11:44:03.969Z,71.94
2019-02-18T11:45:04.202Z,71.46
2019-02-18T11:46:04.026Z,71.27
2019-02-18T11:47:03.946Z,70.51
2019-02-18T11:48:03.945Z,70.03
2019-02-18T11:49:03.919Z,69.84
2019-02-18T11:50:03.918Z,69.87
2019-02-18T11:51:03.921Z,69.93
2019-02-18T11:52:03.903Z,69.11
2019-02-18T11:53:03.960Z,68.35
2019-02-18T11:54:03.884Z,67.97
2019-02-18T11:55:03.882Z,68.63
2019-02-18T11:56:03.873Z,68.06
2019-02-18T11:57:03.865Z,68.35
2019-02-18T11:58:03.850Z,68.44
2019-02-18T11:59:03.841Z,67.68
2019-02-18T12:00:03.857Z,67.3
2019-02-18T12:01:03.926Z,67.11
2019-02-18T12:02:03.827Z,67.3
2019-02-18T12:03:12.408Z,67.77
2019-02-18T12:04:03.810Z,67.77
2019-02-18T12:05:03.793Z,67.87
2019-02-18T12:06:03.782Z,67.77
2019-02-18T12:07:03.777Z,68.35
2019-02-18T12:08:03.777Z,67.77
2019-02-18T12:09:04.144Z,67.97
2019-02-18T12:10:03.773Z,67.01
2019-02-18T12:11:03.750Z,66.92
2019-02-18T12:12:03.742Z,67.77
2019-02-18T12:13:03.766Z,67.77
2019-02-18T12:14:03.727Z,67.87
2019-02-18T12:15:03.719Z,67.21
2019-02-18T12:16:03.953Z,67.4
2019-02-18T12:17:03.707Z,67.49
2019-02-18T12:18:09.959Z,67.77
2019-02-18T12:19:03.691Z,67.91
2019-02-18T12:20:03.677Z,67.77
2019-02-18T12:21:03.656Z,67.68
2019-02-18T12:22:03.658Z,67.4
2019-02-18T12:23:03.653Z,68.06
2019-02-18T12:24:03.971Z,68.29
2019-02-18T12:25:03.630Z,68.44
2019-02-18T12:26:03.638Z,67.87
2019-02-18T12:27:03.622Z,68.06
2019-02-18T12:28:03.611Z,67.91
2019-02-18T12:29:03.615Z,67.87
2019-02-18T12:30:03.622Z,68.29
2019-02-18T12:31:03.830Z,68.29
2019-02-18T12:32:03.610Z,68.29
2019-02-18T12:33:03.641Z,67.91
2019-02-18T12:34:03.560Z,68.29
2019-02-18T12:35:03.550Z,68.29
2019-02-18T12:36:03.538Z,67.91
2019-02-18T12:37:03.532Z,68.57
2019-02-18T12:38:03.548Z,68.38
2019-02-18T12:39:03.812Z,68.29
2019-02-18T12:40:03.509Z,68.29
2019-02-18T12:41:03.506Z,68.29
2019-02-18T12:42:03.498Z,68
2019-02-18T12:43:03.487Z,67.91
2019-02-18T12:44:03.482Z,67.81
2019-02-18T12:45:03.474Z,67.05
2019-02-18T12:46:03.485Z,67.05
2019-02-18T12:47:03.740Z,66.56
2019-02-18T12:48:03.458Z,66.47
2019-02-18T12:49:03.452Z,66.76
2019-02-18T12:50:03.446Z,66.56
2019-02-18T12:51:03.430Z,66.95
2019-02-18T12:52:03.428Z,67.33
2019-02-18T12:53:03.424Z,67.55
2019-02-18T12:54:07.676Z,67.46